Time;durP1;ratioP1;P1;durP2;ratioP2;P2;SDS_P1;SDS_P2;PMS_P1;PMS_P2;Temp;Humidity;BMP_temperature;BMP_pressure;BME280_temperature;BME280_humidity;BME280_pressure;Samples;Min_cycle;Max_cycle;Signal;HPM_P1;HPM_P2
2023/06/02 00:01:14;;;;;;;4.13;3.13;;;16.10;91.20;;;;;;5027891;28;20214;-68
2023/06/02 00:03:41;;;;;;;5.38;3.20;;;16.10;91.20;;;;;;5009660;28;20214;-70
2023/06/02 00:06:15;;;;;;;4.18;3.30;;;16.10;91.20;;;;;;5012898;28;20252;-68
2023/06/02 00:08:43;;;;;;;4.70;3.00;;;16.10;91.20;;;;;;5005001;28;20213;-69
2023/06/02 00:11:11;;;;;;;5.30;3.20;;;16.10;91.10;;;;;;5014341;28;20320;-69
2023/06/02 00:13:37;;;;;;;5.00;3.28;;;16.10;91.20;;;;;;5014671;28;20209;-69
2023/06/02 00:16:03;;;;;;;4.25;2.90;;;16.00;91.10;;;;;;5027571;28;20286;-68
2023/06/02 00:18:32;;;;;;;5.38;2.83;;;16.00;91.20;;;;;;5029464;28;20309;-69
2023/06/02 00:21:01;;;;;;;3.97;2.80;;;16.00;91.30;;;;;;5005845;28;20203;-67
2023/06/02 00:23:29;;;;;;;3.95;2.53;;;16.00;91.30;;;;;;5012351;28;20182;-68
2023/06/02 00:26:00;;;;;;;3.70;2.58;;;16.00;91.20;;;;;;5027063;28;20185;-68
2023/06/02 00:28:28;;;;;;;5.00;2.60;;;16.00;91.20;;;;;;5014977;28;20221;-69
2023/06/02 00:30:57;;;;;;;5.55;2.55;;;15.90;91.20;;;;;;5011580;28;20220;-69
2023/06/02 00:33:24;;;;;;;4.18;2.50;;;16.00;91.10;;;;;;5000496;28;20179;-69
2023/06/02 00:35:50;;;;;;;4.70;2.50;;;15.90;91.10;;;;;;5000357;28;20233;-68
2023/06/02 00:38:16;;;;;;;4.63;2.65;;;15.90;91.10;;;;;;5018747;28;20178;-68
2023/06/02 00:40:44;;;;;;;4.05;2.70;;;15.90;91.10;;;;;;5013500;28;20175;-68
2023/06/02 00:43:12;;;;;;;4.38;2.50;;;15.90;91.00;;;;;;5014371;28;20229;-69
2023/06/02 00:45:37;;;;;;;5.03;2.80;;;15.90;91.00;;;;;;5015576;28;20187;-69
2023/06/02 00:48:08;;;;;;;3.40;2.35;;;15.80;91.10;;;;;;5030900;28;20193;-68
2023/06/02 00:50:39;;;;;;;3.33;2.53;;;15.90;91.30;;;;;;5027331;28;20217;-69
2023/06/02 00:53:07;;;;;;;7.43;3.05;;;15.80;91.30;;;;;;5012050;28;20265;-69
2023/06/02 00:55:32;;;;;;;4.15;2.53;;;15.80;91.30;;;;;;5018552;28;20198;-69
2023/06/02 00:57:59;;;;;;;3.10;2.30;;;15.80;91.10;;;;;;5030201;28;20268;-67
2023/06/02 01:00:26;;;;;;;5.15;2.85;;;15.80;91.20;;;;;;5010438;28;20189;-68
2023/06/02 01:02:57;;;;;;;3.58;2.30;;;15.80;91.20;;;;;;5013177;28;20187;-69
2023/06/02 01:05:23;;;;;;;3.58;2.60;;;15.80;91.10;;;;;;5023846;28;20206;-68
2023/06/02 01:07:55;;;;;;;3.30;2.67;;;15.70;91.00;;;;;;5036671;28;20192;-68
2023/06/02 01:10:20;;;;;;;5.60;2.67;;;15.70;91.10;;;;;;5033798;28;20186;-68
2023/06/02 01:12:48;;;;;;;3.20;2.53;;;15.70;91.50;;;;;;5014183;28;20237;-69
2023/06/02 01:15:16;;;;;;;3.42;2.35;;;15.70;91.10;;;;;;5014239;28;20175;-68
2023/06/02 01:17:46;;;;;;;3.13;2.38;;;15.70;91.00;;;;;;5014458;28;20171;-68
2023/06/02 01:20:13;;;;;;;4.80;2.60;;;15.70;91.00;;;;;;5014621;28;20198;-68
2023/06/02 01:22:49;;;;;;;3.15;2.55;;;15.60;91.00;;;;;;5014528;28;20453;-69
2023/06/02 01:25:20;;;;;;;4.47;2.63;;;15.70;91.10;;;;;;5031057;28;20169;-69
2023/06/02 01:27:49;;;;;;;3.75;2.78;;;15.60;91.30;;;;;;5019727;28;20183;-69
2023/06/02 01:30:17;;;;;;;5.57;2.67;;;15.60;91.10;;;;;;5030069;28;20185;-68
2023/06/02 01:32:57;;;;;;;5.40;2.83;;;15.50;91.10;;;;;;5033426;28;20179;-68
2023/06/02 01:35:28;;;;;;;3.30;2.20;;;15.50;91.30;;;;;;5017548;28;20194;-68
2023/06/02 01:37:57;;;;;;;4.38;2.47;;;15.50;91.30;;;;;;5017619;28;20175;-68
2023/06/02 01:40:24;;;;;;;3.95;2.50;;;15.50;91.20;;;;;;5021948;28;20194;-68
2023/06/02 01:42:52;;;;;;;4.35;2.70;;;15.50;91.20;;;;;;5034231;28;20265;-69
2023/06/02 01:45:21;;;;;;;4.43;2.42;;;15.50;91.20;;;;;;5030403;28;20179;-68
2023/06/02 01:47:51;;;;;;;3.80;2.45;;;15.50;91.20;;;;;;5017238;28;20217;-69
2023/06/02 01:50:17;;;;;;;2.60;2.28;;;15.50;91.20;;;;;;5017412;28;20179;-69
2023/06/02 01:52:42;;;;;;;3.92;2.50;;;15.50;91.20;;;;;;5019921;28;20186;-69
2023/06/02 01:55:08;;;;;;;4.90;2.58;;;15.50;91.10;;;;;;5035120;28;20322;-69
2023/06/02 01:57:34;;;;;;;5.22;2.58;;;15.50;91.10;;;;;;5016757;28;20170;-68
2023/06/02 02:00:04;;;;;;;4.38;2.50;;;15.40;91.10;;;;;;5033722;28;20175;-69
2023/06/02 02:02:29;;;;;;;4.15;2.22;;;15.40;91.10;;;;;;5001782;28;20207;-69
2023/06/02 02:04:57;;;;;;;3.53;2.58;;;15.40;91.10;;;;;;5007323;28;20233;-69
2023/06/02 02:07:23;;;;;;;4.00;2.53;;;15.40;91.20;;;;;;5014282;28;20175;-68
2023/06/02 02:09:49;;;;;;;4.10;2.70;;;15.40;91.20;;;;;;5034141;28;20227;-68
2023/06/02 02:12:15;;;;;;;3.58;2.60;;;15.40;91.20;;;;;;5053579;28;20237;-68
2023/06/02 02:14:43;;;;;;;4.97;3.00;;;15.30;91.20;;;;;;5033345;28;20182;-68
2023/06/02 02:17:11;;;;;;;3.33;2.78;;;15.30;91.10;;;;;;5016094;28;20245;-68
2023/06/02 02:19:37;;;;;;;5.55;3.08;;;15.30;91.20;;;;;;5030124;28;20274;-68
2023/06/02 02:22:05;;;;;;;5.55;3.47;;;15.20;91.10;;;;;;5033448;28;20268;-68
2023/06/02 02:24:31;;;;;;;5.38;3.10;;;15.30;91.30;;;;;;5031837;28;20203;-68
2023/06/02 02:26:57;;;;;;;4.72;2.97;;;15.30;91.30;;;;;;4997772;28;20179;-68
2023/06/02 02:29:23;;;;;;;3.47;2.72;;;15.30;91.30;;;;;;5033236;28;20265;-69
2023/06/02 02:31:48;;;;;;;4.40;2.55;;;15.30;91.20;;;;;;5016246;28;20269;-69
2023/06/02 02:34:14;;;;;;;4.88;2.88;;;15.30;91.20;;;;;;5033253;28;20241;-69
2023/06/02 02:36:44;;;;;;;4.30;3.13;;;15.20;91.20;;;;;;5015843;28;20202;-68
2023/06/02 02:39:10;;;;;;;4.13;2.85;;;15.20;91.20;;;;;;5028085;28;20229;-69
2023/06/02 02:41:36;;;;;;;4.43;2.78;;;15.20;91.10;;;;;;5013026;28;20179;-68
2023/06/02 02:44:06;;;;;;;5.20;2.95;;;15.20;91.20;;;;;;5015021;28;20178;-69
2023/06/02 02:46:34;;;;;;;7.03;2.72;;;15.10;91.30;;;;;;5016081;28;20221;-69
2023/06/02 02:49:02;;;;;;;2.58;2.35;;;15.10;91.20;;;;;;5010297;28;20199;-69
2023/06/02 02:51:27;;;;;;;3.83;2.58;;;15.10;91.10;;;;;;5003162;28;20240;-69
2023/06/02 02:53:53;;;;;;;3.28;2.70;;;15.10;91.10;;;;;;5030891;28;20198;-68
2023/06/02 02:56:22;;;;;;;4.35;2.78;;;15.10;91.10;;;;;;5013543;28;20191;-69
2023/06/02 02:58:48;;;;;;;3.70;2.40;;;15.00;91.20;;;;;;5011731;28;20236;-69
2023/06/02 03:01:16;;;;;;;4.28;2.33;;;15.00;91.10;;;;;;5015496;28;20211;-69
2023/06/02 03:03:41;;;;;;;3.20;2.35;;;15.00;91.30;;;;;;5032061;28;20634;-69
2023/06/02 03:06:07;;;;;;;2.80;2.20;;;15.00;91.20;;;;;;5023116;28;20265;-69
2023/06/02 03:08:33;;;;;;;3.83;2.58;;;15.00;91.30;;;;;;5034816;28;20209;-69
2023/06/02 03:11:01;;;;;;;2.40;2.00;;;15.00;91.50;;;;;;5012637;28;20179;-69
2023/06/02 03:13:26;;;;;;;3.13;2.00;;;14.90;91.20;;;;;;5004132;28;20194;-69
2023/06/02 03:15:54;;;;;;;4.15;2.10;;;14.90;91.30;;;;;;5003674;28;20198;-69
2023/06/02 03:18:20;;;;;;;4.00;2.58;;;14.90;91.30;;;;;;5016670;28;20178;-69
2023/06/02 03:20:48;;;;;;;4.05;2.50;;;14.90;91.40;;;;;;5029327;28;20254;-71
2023/06/02 03:23:19;;;;;;;5.03;2.63;;;14.80;91.20;;;;;;5015646;28;20198;-69
2023/06/02 03:25:44;;;;;;;2.55;2.00;;;14.90;91.30;;;;;;5012452;28;20179;-70
2023/06/02 03:28:10;;;;;;;3.72;2.45;;;14.90;91.30;;;;;;5007647;28;20248;-70
2023/06/02 03:30:35;;;;;;;3.03;2.05;;;14.80;91.50;;;;;;5013527;28;20209;-69
2023/06/02 03:33:03;;;;;;;3.55;2.60;;;14.80;91.10;;;;;;5012474;28;20213;-70
2023/06/02 03:35:31;;;;;;;6.63;2.85;;;14.80;91.10;;;;;;5014654;28;20202;-70
2023/06/02 03:37:57;;;;;;;3.10;2.58;;;14.70;90.90;;;;;;5003734;28;20195;-69
2023/06/02 03:40:29;;;;;;;3.40;2.20;;;14.60;90.90;;;;;;5012070;28;20209;-69
2023/06/02 03:42:54;;;;;;;3.60;2.40;;;14.60;91.00;;;;;;5020075;28;20185;-70
2023/06/02 03:45:22;;;;;;;3.58;2.58;;;14.60;90.90;;;;;;5014559;28;20190;-70
2023/06/02 03:47:48;;;;;;;4.22;2.53;;;14.50;90.90;;;;;;5011960;28;20179;-68
2023/06/02 03:50:16;;;;;;;3.40;2.70;;;14.50;91.00;;;;;;5020310;28;20170;-67
2023/06/02 03:52:44;;;;;;;3.65;2.38;;;14.50;91.00;;;;;;5009266;28;20179;-68
2023/06/02 03:55:12;;;;;;;3.47;2.65;;;14.50;91.00;;;;;;5012075;28;20176;-68
2023/06/02 03:57:38;;;;;;;3.08;2.22;;;14.50;91.40;;;;;;5025800;28;20189;-69
2023/06/02 04:00:06;;;;;;;3.50;2.40;;;14.40;91.00;;;;;;5027090;28;20199;-69
2023/06/02 04:02:34;;;;;;;3.47;2.40;;;14.40;90.90;;;;;;5014214;28;20206;-70
2023/06/02 04:04:59;;;;;;;5.00;2.22;;;14.40;90.90;;;;;;5031594;28;20245;-69
2023/06/02 04:07:27;;;;;;;2.83;2.30;;;14.40;91.00;;;;;;5015020;28;20214;-71
2023/06/02 04:09:53;;;;;;;3.30;2.55;;;14.40;91.10;;;;;;5014938;28;20229;-69
2023/06/02 04:12:19;;;;;;;6.20;2.63;;;14.40;91.00;;;;;;5012094;28;20183;-69
2023/06/02 04:14:44;;;;;;;3.42;2.53;;;14.40;91.00;;;;;;5005286;28;20217;-69
2023/06/02 04:17:10;;;;;;;4.63;3.22;;;14.40;91.10;;;;;;5014683;28;20297;-69
2023/06/02 04:19:36;;;;;;;3.92;2.78;;;14.40;91.10;;;;;;5014905;28;20221;-70
2023/06/02 04:22:05;;;;;;;3.28;2.50;;;14.40;91.20;;;;;;5013366;28;20274;-69
2023/06/02 04:24:33;;;;;;;4.53;2.80;;;14.40;91.20;;;;;;5013877;28;20182;-69
2023/06/02 04:26:58;;;;;;;4.55;2.70;;;14.40;91.20;;;;;;5014190;28;20277;-70
2023/06/02 04:29:24;;;;;;;4.32;2.53;;;14.40;91.20;;;;;;5014385;28;20464;-69
2023/06/02 04:31:50;;;;;;;4.50;3.10;;;14.50;91.20;;;;;;5007076;28;20237;-69
2023/06/02 04:34:16;;;;;;;4.15;3.10;;;14.40;91.20;;;;;;5031017;28;20179;-69
2023/06/02 04:36:42;;;;;;;4.13;3.00;;;14.40;91.20;;;;;;5022501;28;20198;-70
2023/06/02 04:39:11;;;;;;;3.67;2.80;;;14.40;91.50;;;;;;5026620;28;20186;-68
2023/06/02 04:41:37;;;;;;;4.43;2.80;;;14.40;91.30;;;;;;5011961;28;20265;-69
2023/06/02 04:44:04;;;;;;;5.68;3.20;;;14.40;91.30;;;;;;5026878;28;20309;-69
2023/06/02 04:46:32;;;;;;;3.28;2.65;;;14.50;91.30;;;;;;5011417;28;20175;-69
2023/06/02 04:49:07;;;;;;;4.13;3.15;;;14.40;91.20;;;;;;5006896;28;20185;-69
2023/06/02 04:51:35;;;;;;;4.10;2.75;;;14.50;91.30;;;;;;5030532;28;20179;-69
2023/06/02 04:54:01;;;;;;;4.15;2.50;;;14.50;91.20;;;;;;5028048;28;20180;-71
2023/06/02 04:56:27;;;;;;;2.97;2.40;;;14.40;91.10;;;;;;5014670;28;20294;-69
2023/06/02 04:58:53;;;;;;;4.10;2.60;;;14.40;91.00;;;;;;5014425;28;20309;-69
2023/06/02 05:01:19;;;;;;;3.90;2.40;;;14.40;91.10;;;;;;5069104;22;20251;-70
2023/06/02 05:03:44;;;;;;;4.07;2.35;;;14.30;91.20;;;;;;5002559;28;20194;-70
2023/06/02 05:06:13;;;;;;;6.13;2.90;;;14.30;91.20;;;;;;5016022;28;20183;-69
2023/06/02 05:08:39;;;;;;;4.00;2.30;;;14.30;91.20;;;;;;5018114;28;20186;-69
2023/06/02 05:11:07;;;;;;;4.18;2.28;;;14.30;91.30;;;;;;5018164;28;20174;-69
2023/06/02 05:13:32;;;;;;;6.22;3.03;;;14.30;91.20;;;;;;5018181;28;20182;-69
2023/06/02 05:15:58;;;;;;;4.28;2.38;;;14.30;91.50;;;;;;5017322;28;20199;-69
2023/06/02 05:18:27;;;;;;;4.93;2.80;;;14.30;91.40;;;;;;5010892;28;20193;-69
2023/06/02 05:20:54;;;;;;;3.00;2.67;;;14.30;91.30;;;;;;5017716;28;20228;-69
2023/06/02 05:23:19;;;;;;;3.70;2.78;;;14.30;91.40;;;;;;5016738;28;20183;-69
2023/06/02 05:25:49;;;;;;;3.95;2.80;;;14.30;91.30;;;;;;5010604;28;20197;-69
2023/06/02 05:28:15;;;;;;;5.88;2.60;;;14.30;91.40;;;;;;5017149;28;20282;-69
2023/06/02 05:30:43;;;;;;;4.15;2.70;;;14.30;91.20;;;;;;5017463;28;20179;-69
2023/06/02 05:33:08;;;;;;;4.55;2.78;;;14.30;91.20;;;;;;5017492;28;20211;-69
2023/06/02 05:35:34;;;;;;;3.50;2.67;;;14.30;91.20;;;;;;5017021;28;20199;-70
2023/06/02 05:38:02;;;;;;;4.53;2.92;;;14.30;91.20;;;;;;5011694;28;20214;-69
2023/06/02 05:40:28;;;;;;;4.25;2.80;;;14.30;91.40;;;;;;5016975;28;20238;-69
2023/06/02 05:42:55;;;;;;;5.30;3.25;;;14.30;91.30;;;;;;5009155;28;20210;-70
2023/06/02 05:45:23;;;;;;;5.53;3.60;;;14.40;91.40;;;;;;5013604;28;20226;-70
2023/06/02 05:47:49;;;;;;;4.35;2.83;;;14.30;91.40;;;;;;5017007;28;20202;-69
2023/06/02 05:50:15;;;;;;;5.45;3.60;;;14.30;91.40;;;;;;5017082;28;20217;-72
2023/06/02 05:52:42;;;;;;;5.03;3.40;;;14.40;91.40;;;;;;5023665;28;20168;-69
2023/06/02 05:55:08;;;;;;;3.72;3.08;;;14.40;91.20;;;;;;5012133;28;20198;-70
2023/06/02 05:57:36;;;;;;;6.50;3.65;;;14.40;91.10;;;;;;5011392;28;20175;-70
2023/06/02 06:00:08;;;;;;;6.82;3.72;;;14.40;91.10;;;;;;5033214;28;20186;-69
2023/06/02 06:02:33;;;;;;;6.60;3.55;;;14.40;91.10;;;;;;5025621;28;20195;-70
2023/06/02 06:04:59;;;;;;;6.35;3.70;;;14.40;91.10;;;;;;4997801;28;20376;-69
2023/06/02 06:07:27;;;;;;;6.72;3.65;;;14.40;91.00;;;;;;5016451;28;20193;-69
2023/06/02 06:09:53;;;;;;;5.28;3.50;;;14.40;90.90;;;;;;5017766;28;20186;-70
2023/06/02 06:12:18;;;;;;;5.18;3.30;;;14.40;90.90;;;;;;5008372;28;20207;-69
2023/06/02 06:14:44;;;;;;;5.18;3.75;;;14.40;90.90;;;;;;5012517;28;20189;-69
2023/06/02 06:17:09;;;;;;;4.90;3.45;;;14.40;90.80;;;;;;5012631;28;20294;-69
2023/06/02 06:19:35;;;;;;;4.55;3.20;;;14.50;90.70;;;;;;5013584;28;20171;-69
2023/06/02 06:22:02;;;;;;;4.75;3.20;;;14.50;90.60;;;;;;5029373;28;20186;-69
2023/06/02 06:24:27;;;;;;;5.65;3.60;;;14.50;90.70;;;;;;5014017;28;20261;-69
2023/06/02 06:26:53;;;;;;;5.63;3.60;;;14.40;90.70;;;;;;5013146;28;20183;-69
2023/06/02 06:29:18;;;;;;;5.30;3.42;;;14.50;90.80;;;;;;4996633;28;20176;-68
2023/06/02 06:31:44;;;;;;;4.13;3.33;;;14.50;90.80;;;;;;5016312;28;20222;-68
2023/06/02 06:34:10;;;;;;;7.40;3.30;;;14.50;90.60;;;;;;5015936;28;20178;-69
2023/06/02 06:36:38;;;;;;;4.38;3.33;;;14.50;90.60;;;;;;5016569;28;20202;-69
2023/06/02 06:39:03;;;;;;;5.97;3.30;;;14.60;90.60;;;;;;5016076;28;20219;-67
2023/06/02 06:41:29;;;;;;;5.20;3.33;;;14.60;90.60;;;;;;5027136;28;20193;-67
2023/06/02 06:43:57;;;;;;;4.00;3.08;;;14.60;90.50;;;;;;5015567;28;20294;-67
2023/06/02 06:46:23;;;;;;;5.60;3.33;;;14.60;90.50;;;;;;5015940;28;20174;-67
2023/06/02 06:48:48;;;;;;;5.32;3.50;;;14.60;90.40;;;;;;5032440;28;20185;-68
2023/06/02 06:51:16;;;;;;;5.72;3.35;;;14.60;90.50;;;;;;5032287;28;20199;-68
2023/06/02 06:53:44;;;;;;;4.32;3.10;;;14.60;90.60;;;;;;5032600;28;20170;-67
2023/06/02 06:56:10;;;;;;;4.82;3.38;;;14.70;90.70;;;;;;5018669;28;20211;-67
2023/06/02 06:58:35;;;;;;;6.28;4.10;;;14.70;90.70;;;;;;5015564;28;20205;-67
2023/06/02 07:01:02;;;;;;;3.78;3.30;;;14.80;90.80;;;;;;5015709;28;20209;-68
2023/06/02 07:03:27;;;;;;;5.45;3.42;;;14.80;90.80;;;;;;5031954;28;20178;-68
2023/06/02 07:05:55;;;;;;;4.82;3.70;;;14.90;90.90;;;;;;5015849;28;20193;-68
2023/06/02 07:08:23;;;;;;;7.20;4.25;;;14.90;90.90;;;;;;5015634;28;20179;-68
2023/06/02 07:10:53;;;;;;;5.47;3.90;;;15.00;91.00;;;;;;5016112;28;20186;-68
2023/06/02 07:13:19;;;;;;;5.88;3.88;;;15.10;91.00;;;;;;5012517;28;20194;-67
2023/06/02 07:15:45;;;;;;;4.28;3.35;;;15.10;90.90;;;;;;5004309;28;20195;-67
2023/06/02 07:18:13;;;;;;;6.47;3.33;;;15.20;90.90;;;;;;5015150;28;20195;-68
2023/06/02 07:20:42;;;;;;;4.40;3.33;;;15.30;90.90;;;;;;5002518;28;20246;-68
2023/06/02 07:23:08;;;;;;;4.95;3.38;;;15.30;90.80;;;;;;5011964;28;20249;-67
2023/06/02 07:25:37;;;;;;;6.68;3.50;;;15.40;90.90;;;;;;5015209;28;20290;-67
2023/06/02 07:28:04;;;;;;;7.38;4.00;;;15.50;90.90;;;;;;5027993;28;20261;-68
2023/06/02 07:30:31;;;;;;;6.43;3.80;;;15.60;90.80;;;;;;5022578;28;20218;-67
2023/06/02 07:32:57;;;;;;;6.03;3.67;;;15.60;90.60;;;;;;5012148;28;20178;-68
2023/06/02 07:35:25;;;;;;;5.28;3.53;;;15.70;90.40;;;;;;5015279;28;20194;-68
2023/06/02 07:37:55;;;;;;;4.65;3.50;;;15.60;90.20;;;;;;5015330;28;20195;-68
2023/06/02 07:40:21;;;;;;;5.25;3.63;;;15.60;90.20;;;;;;5015563;28;20178;-68
2023/06/02 07:42:49;;;;;;;5.82;3.88;;;15.70;90.30;;;;;;5015301;28;20266;-67
2023/06/02 07:45:17;;;;;;;7.45;4.88;;;15.70;90.30;;;;;;5015095;28;20260;-67
2023/06/02 07:47:45;;;;;;;6.65;4.15;;;15.80;90.40;;;;;;5015215;28;20237;-68
2023/06/02 07:50:11;;;;;;;5.93;4.03;;;15.80;90.50;;;;;;5014046;28;20175;-68
2023/06/02 07:52:37;;;;;;;8.60;4.25;;;15.90;90.60;;;;;;5015643;28;20178;-68
2023/06/02 07:55:06;;;;;;;6.43;3.83;;;16.00;90.50;;;;;;5014785;28;20178;-68
2023/06/02 07:57:33;;;;;;;5.28;3.60;;;16.00;90.40;;;;;;5006665;28;20206;-68
2023/06/02 08:00:15;;;;;;;4.95;3.33;;;16.10;90.40;;;;;;5015876;28;20163;-68
2023/06/02 08:02:46;;;;;;;5.22;3.53;;;16.20;90.30;;;;;;5032107;28;20201;-68
2023/06/02 08:05:15;;;;;;;5.80;3.47;;;16.30;90.30;;;;;;5011907;28;20168;-68
2023/06/02 08:07:43;;;;;;;7.75;4.00;;;16.30;90.20;;;;;;5014759;28;20182;-68
2023/06/02 08:10:12;;;;;;;7.07;3.88;;;16.40;90.10;;;;;;5015085;28;20171;-67
2023/06/02 08:12:38;;;;;;;4.60;3.53;;;16.40;90.00;;;;;;5014895;28;20189;-68
2023/06/02 08:15:05;;;;;;;5.63;3.40;;;16.40;89.70;;;;;;5013182;28;20175;-68
2023/06/02 08:17:30;;;;;;;8.15;3.20;;;16.40;89.60;;;;;;5009076;28;20312;-68
2023/06/02 08:20:00;;;;;;;7.43;3.60;;;16.40;89.40;;;;;;5031435;28;20190;-68
2023/06/02 08:22:27;;;;;;;5.18;3.15;;;16.50;89.20;;;;;;4997501;28;20186;-68
2023/06/02 08:24:53;;;;;;;7.53;3.15;;;16.40;89.30;;;;;;4998509;28;20191;-69
2023/06/02 08:27:21;;;;;;;4.50;2.97;;;16.50;89.20;;;;;;5011745;28;20209;-68
2023/06/02 08:29:53;;;;;;;3.30;2.67;;;16.50;88.90;;;;;;5024024;28;20281;-68
2023/06/02 08:32:22;;;;;;;7.43;2.97;;;16.50;88.50;;;;;;5015276;28;20210;-68
2023/06/02 08:34:56;;;;;;;8.18;3.38;;;16.50;88.40;;;;;;5031176;28;20278;-67
2023/06/02 08:37:25;;;;;;;6.70;3.30;;;16.40;88.10;;;;;;5016796;28;20209;-68
2023/06/02 08:39:52;;;;;;;4.85;2.78;;;16.40;88.20;;;;;;5014764;28;20187;-66
2023/06/02 08:42:19;;;;;;;5.22;3.15;;;16.50;88.20;;;;;;5017897;28;20192;-67
2023/06/02 08:44:45;;;;;;;7.28;3.67;;;16.50;87.90;;;;;;5018808;28;20204;-68
2023/06/02 08:47:15;;;;;;;6.63;3.30;;;16.40;87.20;;;;;;5018841;28;20186;-67
2023/06/02 08:49:42;;;;;;;6.15;2.83;;;16.40;86.90;;;;;;5018700;28;20189;-68
2023/06/02 08:52:21;;;;;;;6.80;2.90;;;16.40;86.80;;;;;;5018498;28;20189;-68
2023/06/02 08:54:50;;;;;;;6.10;3.00;;;16.30;86.80;;;;;;5018645;28;20247;-68
2023/06/02 08:57:22;;;;;;;6.55;2.90;;;16.40;87.50;;;;;;5035154;28;20210;-68
2023/06/02 08:59:52;;;;;;;6.95;3.08;;;16.40;88.60;;;;;;5015444;28;20186;-68
2023/06/02 09:02:18;;;;;;;5.80;3.20;;;16.50;88.00;;;;;;5008066;28;20195;-68
2023/06/02 09:04:46;;;;;;;4.72;2.88;;;16.60;88.40;;;;;;4998950;28;20195;-68
2023/06/02 09:07:12;;;;;;;5.45;3.45;;;16.70;88.30;;;;;;5016989;28;20186;-68
2023/06/02 09:09:55;;;;;;;9.93;3.53;;;16.80;87.90;;;;;;5018289;28;20178;-69
2023/06/02 09:12:27;;;;;;;7.28;3.78;;;16.90;87.10;;;;;;5027836;28;20178;-68
2023/06/02 09:15:16;;;;;;;5.63;2.85;;;16.90;86.40;;;;;;5017960;28;20209;-68
2023/06/02 09:17:42;;;;;;;5.03;2.63;;;16.90;86.40;;;;;;4999855;28;20218;-68
2023/06/02 09:20:11;;;;;;;4.65;3.13;;;16.90;86.50;;;;;;5004557;28;20182;-68
2023/06/02 09:22:58;;;;;;;8.85;3.67;;;16.90;86.60;;;;;;5028630;28;20186;-69
2023/06/02 09:25:28;;;;;;;6.07;3.17;;;16.90;85.90;;;;;;5017644;28;20178;-67
2023/06/02 09:27:55;;;;;;;6.15;3.15;;;16.90;86.60;;;;;;5014973;28;20245;-68
2023/06/02 09:30:30;;;;;;;5.57;3.03;;;17.00;87.20;;;;;;5032896;28;20198;-68
2023/06/02 09:33:11;;;;;;;5.63;3.22;;;17.00;86.80;;;;;;5014330;28;20269;-69
2023/06/02 09:35:45;;;;;;;6.20;3.33;;;17.00;86.70;;;;;;5017917;28;20174;-68
2023/06/02 09:38:13;;;;;;;4.90;3.38;;;17.10;86.10;;;;;;5033990;28;20203;-68
2023/06/02 09:40:44;;;;;;;7.20;4.00;;;17.10;86.60;;;;;;5021387;28;20257;-69
2023/06/02 09:43:15;;;;;;;7.55;4.45;;;17.20;86.70;;;;;;5017321;28;20191;-68
2023/06/02 09:45:49;;;;;;;6.50;3.63;;;17.20;86.20;;;;;;5034119;28;20210;-69
2023/06/02 09:48:27;;;;;;;6.10;3.70;;;17.30;86.30;;;;;;5019633;28;20261;-69
2023/06/02 09:50:55;;;;;;;7.45;4.30;;;17.30;85.80;;;;;;5010717;28;20221;-69
2023/06/02 09:53:24;;;;;;;5.50;3.85;;;17.40;85.60;;;;;;5011349;28;20197;-66
2023/06/02 09:55:52;;;;;;;6.28;4.10;;;17.30;85.20;;;;;;5013300;28;20205;-69
2023/06/02 09:58:20;;;;;;;11.23;4.47;;;17.30;85.20;;;;;;5003912;28;20170;-69
2023/06/02 10:00:49;;;;;;;6.07;4.05;;;17.30;85.50;;;;;;5030012;28;20202;-69
2023/06/02 10:03:16;;;;;;;5.68;4.22;;;17.30;85.70;;;;;;5025783;28;20191;-69
2023/06/02 10:05:57;;;;;;;9.82;4.78;;;17.40;85.60;;;;;;4998136;28;20186;-67
2023/06/02 10:09:04;;;;;;;7.20;4.20;;;17.40;84.80;;;;;;5023303;28;20295;-68
2023/06/02 10:12:05;;;;;;;7.32;3.88;;;17.40;84.60;;;;;;5016263;28;20260;-69
2023/06/02 10:14:55;;;;;;;5.80;3.63;;;17.40;84.90;;;;;;5029763;28;20222;-68
2023/06/02 10:17:45;;;;;;;6.88;3.72;;;17.50;85.40;;;;;;5016470;28;20210;-68
2023/06/02 10:20:18;;;;;;;6.45;4.32;;;17.60;85.10;;;;;;5033019;28;20261;-69
2023/06/02 10:23:01;;;;;;;5.28;3.70;;;17.70;85.30;;;;;;5016171;28;20209;-69
2023/06/02 10:25:46;;;;;;;9.77;4.00;;;17.80;85.00;;;;;;5013696;28;20214;-69
2023/06/02 10:28:13;;;;;;;6.10;4.18;;;17.80;84.60;;;;;;5016790;28;20181;-69
2023/06/02 10:30:43;;;;;;;6.68;3.38;;;17.90;84.50;;;;;;5016591;28;20289;-69
2023/06/02 10:33:09;;;;;;;6.55;3.72;;;17.90;84.80;;;;;;5017077;28;20186;-69
2023/06/02 10:35:59;;;;;;;8.45;3.55;;;18.00;85.30;;;;;;5008238;28;20179;-69
2023/06/02 10:38:26;;;;;;;6.22;3.65;;;18.20;84.70;;;;;;5023486;28;20183;-68
2023/06/02 10:40:54;;;;;;;7.25;3.72;;;18.40;85.90;;;;;;5016202;28;20186;-68
2023/06/02 10:43:21;;;;;;;5.45;3.55;;;18.60;85.40;;;;;;5005411;28;20209;-69
2023/06/02 10:45:47;;;;;;;6.00;3.30;;;18.80;85.90;;;;;;5013019;28;20195;-69
2023/06/02 10:48:35;;;;;;;8.18;3.75;;;19.10;86.70;;;;;;5015871;28;20179;-69
2023/06/02 10:51:06;;;;;;;7.13;3.40;;;19.30;84.50;;;;;;5016102;28;20201;-69
2023/06/02 10:54:12;;;;;;;6.65;3.17;;;19.50;85.10;;;;;;5015418;28;20190;-67
2023/06/02 10:56:39;;;;;;;6.20;3.10;;;19.70;84.50;;;;;;5011951;28;20219;-67
2023/06/02 10:59:06;;;;;;;6.40;2.80;;;19.80;85.50;;;;;;5009132;28;20179;-67
2023/06/02 11:01:51;;;;;;;5.85;3.40;;;20.00;85.70;;;;;;5015540;28;20268;-67
2023/06/02 11:04:33;;;;;;;8.32;3.55;;;20.20;83.70;;;;;;5015638;28;20193;-67
2023/06/02 11:07:28;;;;;;;5.55;2.72;;;20.30;83.60;;;;;;5015698;28;20187;-66
2023/06/02 11:10:04;;;;;;;7.07;3.60;;;20.40;81.00;;;;;;5015651;28;20198;-67
2023/06/02 11:12:54;;;;;;;4.80;2.70;;;20.50;81.70;;;;;;4999410;28;20368;-66
2023/06/02 11:15:23;;;;;;;5.00;2.60;;;20.60;81.60;;;;;;5029547;28;20190;-67
2023/06/02 11:17:49;;;;;;;4.20;2.70;;;20.70;83.70;;;;;;5015337;28;20189;-66
2023/06/02 11:20:19;;;;;;;6.05;3.00;;;20.80;82.60;;;;;;5015506;28;20233;-67
2023/06/02 11:22:50;;;;;;;3.38;2.30;;;20.90;81.90;;;;;;5020735;28;20249;-67
2023/06/02 11:25:18;;;;;;;8.40;3.40;;;21.00;83.40;;;;;;5014895;28;20171;-67
2023/06/02 11:27:48;;;;;;;7.43;3.45;;;21.10;81.80;;;;;;5015434;28;20244;-69
2023/06/02 11:30:19;;;;;;;5.88;2.78;;;21.30;82.10;;;;;;5031579;28;20202;-68
2023/06/02 11:32:51;;;;;;;5.38;2.75;;;21.40;82.00;;;;;;5015028;28;20175;-67
2023/06/02 11:35:20;;;;;;;6.50;2.75;;;21.60;82.30;;;;;;5015474;28;20229;-69
2023/06/02 11:38:04;;;;;;;5.63;2.55;;;21.70;81.90;;;;;;5010582;28;20203;-68
2023/06/02 11:40:31;;;;;;;5.50;2.63;;;21.90;78.80;;;;;;5018322;28;20273;-68
2023/06/02 11:42:56;;;;;;;5.95;2.80;;;22.00;80.90;;;;;;5008565;28;20213;-68
2023/06/02 11:45:24;;;;;;;5.10;2.83;;;22.10;80.70;;;;;;5014845;28;20179;-67
2023/06/02 11:48:25;;;;;;;3.20;2.08;;;22.20;81.30;;;;;;5015099;28;20179;-68
2023/06/02 11:50:57;;;;;;;5.10;2.25;;;22.30;79.10;;;;;;5015066;28;20186;-67
2023/06/02 11:53:22;;;;;;;5.03;2.95;;;22.40;80.20;;;;;;5015123;28;20236;-67
2023/06/02 11:55:48;;;;;;;6.10;3.03;;;22.50;79.10;;;;;;5014882;28;20233;-69
2023/06/02 11:58:22;;;;;;;4.97;2.42;;;22.60;77.80;;;;;;5012596;28;20178;-67
2023/06/02 12:00:49;;;;;;;5.32;2.90;;;22.50;75.30;;;;;;5012224;28;20170;-67
2023/06/02 12:03:17;;;;;;;8.43;3.35;;;22.50;77.10;;;;;;5029758;28;20190;-66
2023/06/02 12:05:45;;;;;;;6.30;3.10;;;22.50;76.50;;;;;;4995511;28;20237;-67
2023/06/02 12:08:25;;;;;;;4.15;2.70;;;22.50;76.90;;;;;;5001276;28;20178;-68
2023/06/02 12:10:52;;;;;;;5.18;2.47;;;22.50;75.70;;;;;;5011941;28;20266;-67
2023/06/02 12:13:33;;;;;;;4.97;2.83;;;22.60;76.80;;;;;;5006648;28;20179;-68
2023/06/02 12:16:20;;;;;;;4.72;3.15;;;22.70;76.10;;;;;;5013886;28;20263;-67
2023/06/02 12:18:46;;;;;;;6.80;3.05;;;22.80;76.30;;;;;;5015123;28;20178;-67
2023/06/02 12:21:28;;;;;;;6.90;3.45;;;22.90;77.20;;;;;;5014804;28;20258;-69
2023/06/02 12:23:58;;;;;;;4.57;2.92;;;23.00;74.50;;;;;;5014868;28;20175;-67
2023/06/02 12:26:26;;;;;;;4.22;2.70;;;23.00;75.70;;;;;;5001663;28;20439;-68
2023/06/02 12:28:52;;;;;;;5.95;3.10;;;23.10;75.50;;;;;;4999038;28;20199;-68
2023/06/02 12:31:18;;;;;;;4.53;2.72;;;23.20;76.00;;;;;;5014880;28;20174;-68
2023/06/02 12:33:45;;;;;;;5.38;2.67;;;23.30;76.10;;;;;;5015148;28;20257;-67
2023/06/02 12:36:11;;;;;;;4.85;2.65;;;23.40;75.10;;;;;;5014674;28;20206;-67
2023/06/02 12:38:42;;;;;;;5.57;2.55;;;23.60;73.80;;;;;;5018656;28;20178;-68
2023/06/02 12:41:13;;;;;;;4.88;2.20;;;23.70;72.90;;;;;;5014053;28;20175;-67
2023/06/02 12:43:39;;;;;;;3.05;2.17;;;23.70;73.50;;;;;;5011555;28;20185;-68
2023/06/02 12:46:08;;;;;;;4.63;2.38;;;23.90;73.90;;;;;;5019290;28;20175;-67
2023/06/02 12:48:33;;;;;;;4.65;2.38;;;24.00;73.20;;;;;;5014611;28;20231;-68
2023/06/02 12:50:59;;;;;;;6.30;2.63;;;24.10;72.90;;;;;;5014190;28;20202;-67
2023/06/02 12:53:25;;;;;;;6.85;2.50;;;24.10;72.70;;;;;;5014434;28;20181;-68
2023/06/02 12:55:52;;;;;;;5.55;2.70;;;24.20;72.10;;;;;;5010724;28;20213;-68
2023/06/02 12:58:17;;;;;;;3.92;2.20;;;24.30;72.00;;;;;;5028378;28;20175;-67